createdAt,value
2022-10-07T00:00:53.876Z,2.50
2022-10-07T00:03:22.296Z,2.28
2022-10-07T00:06:00.111Z,2.90
2022-10-07T00:08:27.413Z,2.78
2022-10-07T00:10:55.009Z,2.50
2022-10-07T00:13:24.442Z,2.90
2022-10-07T00:15:51.722Z,2.20
2022-10-07T00:18:19.106Z,2.53
2022-10-07T00:20:46.370Z,2.63
2022-10-07T00:23:13.631Z,2.08
2022-10-07T00:25:40.887Z,2.63
2022-10-07T00:28:08.247Z,2.58
2022-10-07T00:30:35.595Z,2.58
2022-10-07T00:33:02.961Z,2.85
2022-10-07T00:35:30.245Z,2.22
2022-10-07T00:37:57.543Z,2.83
2022-10-07T00:40:24.798Z,2.38
2022-10-07T00:42:52.056Z,2.70
2022-10-07T00:45:21.298Z,2.65
2022-10-07T00:47:51.315Z,2.10
2022-10-07T00:50:21.504Z,3.10
2022-10-07T00:52:52.213Z,2.50
2022-10-07T00:55:21.481Z,2.75
2022-10-07T00:57:49.582Z,2.30
2022-10-07T01:00:17.489Z,2.33
2022-10-07T01:02:45.316Z,2.85
2022-10-07T01:05:14.296Z,2.65
2022-10-07T01:07:42.790Z,2.40
2022-10-07T01:10:12.058Z,2.10
2022-10-07T01:12:48.539Z,2.40
2022-10-07T01:15:32.454Z,2.80
2022-10-07T01:18:18.409Z,2.70
2022-10-07T01:20:54.087Z,2.53
2022-10-07T01:23:21.334Z,2.58
2022-10-07T01:25:49.567Z,2.50
2022-10-07T01:28:22.915Z,2.50
2022-10-07T01:30:52.402Z,2.30
2022-10-07T01:33:21.914Z,2.10
2022-10-07T01:35:51.364Z,2.75
2022-10-07T01:38:19.944Z,2.60
2022-10-07T01:40:48.962Z,2.63
2022-10-07T01:43:18.827Z,2.70
2022-10-07T01:45:49.040Z,2.38
2022-10-07T01:48:17.156Z,2.87
2022-10-07T01:50:44.834Z,2.97
2022-10-07T01:53:31.333Z,2.38
2022-10-07T01:56:11.995Z,2.10
2022-10-07T01:58:56.898Z,2.72
2022-10-07T02:01:26.984Z,2.75
2022-10-07T02:04:00.508Z,2.72
2022-10-07T02:06:36.981Z,2.05
2022-10-07T02:09:07.293Z,2.05
2022-10-07T02:11:38.220Z,3.53
2022-10-07T02:14:12.888Z,2.70
2022-10-07T02:16:50.977Z,2.58
2022-10-07T02:19:29.780Z,3.95
2022-10-07T02:21:58.252Z,2.85
2022-10-07T02:24:28.301Z,2.78
2022-10-07T02:26:56.796Z,3.10
2022-10-07T02:29:25.829Z,2.40
2022-10-07T02:31:53.495Z,2.40
2022-10-07T02:34:22.385Z,3.00
2022-10-07T02:36:55.653Z,2.80
2022-10-07T02:39:22.890Z,3.33
2022-10-07T02:41:57.000Z,2.60
2022-10-07T02:44:43.238Z,2.80
2022-10-07T02:47:10.467Z,3.15
2022-10-07T02:49:39.949Z,2.78
2022-10-07T02:52:08.663Z,2.75
2022-10-07T02:54:47.900Z,2.20
2022-10-07T02:57:18.212Z,2.28
2022-10-07T02:59:46.714Z,3.07
2022-10-07T03:02:16.938Z,3.10
2022-10-07T03:04:44.201Z,2.93
2022-10-07T03:07:13.964Z,2.13
2022-10-07T03:09:42.293Z,2.63
2022-10-07T03:12:09.586Z,2.58
2022-10-07T03:14:37.323Z,3.10
2022-10-07T03:17:04.806Z,2.63
2022-10-07T03:19:32.139Z,2.83
2022-10-07T03:21:59.399Z,2.80
2022-10-07T03:24:26.691Z,2.45
2022-10-07T03:26:53.929Z,2.60
2022-10-07T03:29:21.226Z,2.40
2022-10-07T03:31:48.473Z,2.53
2022-10-07T03:34:15.708Z,3.40
2022-10-07T03:36:42.956Z,3.08
2022-10-07T03:39:10.225Z,2.60
2022-10-07T03:41:37.484Z,3.10
2022-10-07T03:44:05.673Z,3.97
2022-10-07T03:46:33.035Z,3.20
2022-10-07T03:49:00.401Z,2.88
2022-10-07T03:51:27.656Z,3.40
2022-10-07T03:53:57.654Z,2.63
2022-10-07T03:56:25.310Z,2.85
2022-10-07T03:58:52.903Z,2.50
2022-10-07T04:01:20.190Z,3.05
2022-10-07T04:03:47.549Z,3.63
2022-10-07T04:06:14.858Z,3.30
2022-10-07T04:08:43.767Z,3.00
2022-10-07T04:11:11.699Z,2.83
2022-10-07T04:13:40.650Z,3.40
2022-10-07T04:16:08.849Z,2.75
2022-10-07T04:18:36.753Z,2.55
2022-10-07T04:21:04.094Z,3.00
2022-10-07T04:23:31.444Z,2.83
2022-10-07T04:25:58.705Z,2.97
2022-10-07T04:28:26.828Z,2.83
2022-10-07T04:30:54.462Z,3.50
2022-10-07T04:33:22.558Z,3.17
2022-10-07T04:35:50.292Z,3.00
2022-10-07T04:38:24.228Z,4.03
2022-10-07T04:40:53.632Z,3.13
2022-10-07T04:43:25.286Z,3.55
2022-10-07T04:46:00.642Z,3.97
2022-10-07T04:48:27.952Z,3.20
2022-10-07T04:50:56.450Z,3.75
2022-10-07T04:53:23.675Z,5.32
2022-10-07T04:55:52.060Z,3.78
2022-10-07T04:58:20.146Z,3.85
2022-10-07T05:00:48.949Z,3.85
2022-10-07T05:03:17.224Z,3.88
2022-10-07T05:05:45.777Z,4.10
2022-10-07T05:08:13.393Z,3.47
2022-10-07T05:10:40.934Z,3.80
2022-10-07T05:13:12.296Z,3.60
2022-10-07T05:15:47.966Z,3.40
2022-10-07T05:18:15.209Z,4.13
2022-10-07T05:20:44.667Z,3.40
2022-10-07T05:23:11.901Z,3.33
2022-10-07T05:25:39.138Z,3.58
2022-10-07T05:28:06.389Z,2.92
2022-10-07T05:30:33.712Z,2.95
2022-10-07T05:33:01.344Z,3.15
2022-10-07T05:35:28.586Z,2.42
2022-10-07T05:37:56.238Z,3.75
2022-10-07T05:40:23.666Z,3.22
2022-10-07T05:42:50.950Z,4.03
2022-10-07T05:45:19.319Z,3.45
2022-10-07T05:47:47.904Z,2.92
2022-10-07T05:50:15.864Z,3.72
2022-10-07T05:52:45.373Z,3.35
2022-10-07T05:55:13.006Z,3.45
2022-10-07T05:57:41.351Z,3.67
2022-10-07T06:00:08.962Z,3.10
2022-10-07T06:02:37.430Z,3.30
2022-10-07T06:05:04.905Z,3.65
2022-10-07T06:07:32.136Z,3.97
2022-10-07T06:10:17.954Z,3.90
2022-10-07T06:13:03.669Z,3.92
2022-10-07T06:15:31.608Z,3.92
2022-10-07T06:17:58.914Z,3.72
2022-10-07T06:20:26.229Z,3.25
2022-10-07T06:22:54.375Z,3.67
2022-10-07T06:25:21.926Z,3.70
2022-10-07T06:27:53.850Z,3.97
2022-10-07T06:30:21.819Z,3.28
2022-10-07T06:32:49.220Z,2.97
2022-10-07T06:35:16.550Z,3.70
2022-10-07T06:37:44.000Z,3.00
2022-10-07T06:40:12.023Z,3.08
2022-10-07T06:42:39.278Z,3.35
2022-10-07T06:45:06.823Z,3.53
2022-10-07T06:47:34.712Z,3.20
2022-10-07T06:50:02.156Z,3.42
2022-10-07T06:52:29.410Z,3.08
2022-10-07T06:54:57.869Z,2.67
2022-10-07T06:57:44.759Z,2.83
2022-10-07T07:00:12.668Z,3.10
2022-10-07T07:02:39.977Z,3.00
2022-10-07T07:05:08.889Z,2.70
2022-10-07T07:07:36.179Z,3.35
2022-10-07T07:10:04.196Z,2.92
2022-10-07T07:12:31.446Z,2.55
2022-10-07T07:15:00.379Z,2.40
2022-10-07T07:17:27.686Z,2.28
2022-10-07T07:19:56.533Z,2.63
2022-10-07T07:22:23.766Z,2.90
2022-10-07T07:24:53.473Z,2.78
2022-10-07T07:27:21.580Z,2.50
2022-10-07T07:29:48.886Z,2.88
2022-10-07T07:32:16.155Z,2.92
2022-10-07T07:34:43.495Z,3.25
2022-10-07T07:37:10.773Z,2.42
2022-10-07T07:39:38.297Z,3.15
2022-10-07T07:42:05.605Z,2.88
2022-10-07T07:44:34.885Z,2.40
2022-10-07T07:47:02.387Z,2.60
2022-10-07T07:49:32.052Z,2.75
2022-10-07T07:51:59.494Z,2.75
2022-10-07T07:54:30.630Z,2.17
2022-10-07T07:59:25.991Z,2.67
2022-10-07T08:01:53.250Z,2.63
2022-10-07T08:04:21.183Z,2.63
2022-10-07T08:06:48.418Z,2.40
2022-10-07T08:09:15.725Z,2.33
2022-10-07T08:11:45.408Z,2.15
2022-10-07T08:14:13.558Z,2.00
2022-10-07T08:16:40.843Z,2.75
2022-10-07T08:19:08.115Z,2.42
2022-10-07T08:21:35.373Z,2.47
2022-10-07T08:24:04.031Z,2.20
2022-10-07T08:26:32.060Z,1.75
2022-10-07T08:29:00.141Z,2.05
2022-10-07T08:31:29.727Z,2.33
2022-10-07T08:33:58.261Z,2.13
2022-10-07T08:36:26.841Z,2.78
2022-10-07T08:38:54.122Z,2.15
2022-10-07T08:41:39.985Z,2.03
2022-10-07T08:44:19.072Z,2.28
2022-10-07T08:46:53.136Z,2.40
2022-10-07T08:49:25.627Z,2.60
2022-10-07T08:51:59.192Z,2.33
2022-10-07T08:54:33.433Z,2.25
2022-10-07T08:57:15.514Z,2.40
2022-10-07T08:59:48.164Z,2.55
2022-10-07T09:02:26.775Z,1.80
2022-10-07T09:05:05.726Z,2.05
2022-10-07T09:07:38.844Z,2.13
2022-10-07T09:10:15.603Z,2.92
2022-10-07T09:12:42.840Z,2.15
2022-10-07T09:15:17.815Z,2.42
2022-10-07T09:17:51.219Z,2.17
2022-10-07T09:20:20.192Z,2.00
2022-10-07T09:22:55.003Z,2.45
2022-10-07T09:25:23.439Z,2.20
2022-10-07T09:27:52.257Z,2.08
2022-10-07T09:30:20.519Z,2.45
2022-10-07T09:32:49.253Z,2.90
2022-10-07T09:35:17.741Z,2.10
2022-10-07T09:37:53.879Z,2.05
2022-10-07T09:40:32.423Z,2.00
2022-10-07T09:43:00.449Z,2.22
2022-10-07T09:45:31.443Z,2.10
2022-10-07T09:48:07.274Z,2.03
2022-10-07T09:50:39.121Z,2.20
2022-10-07T09:53:07.428Z,2.05
2022-10-07T09:55:40.396Z,2.33
2022-10-07T09:58:16.993Z,2.13
2022-10-07T10:00:45.383Z,2.28
2022-10-07T10:03:13.081Z,2.70
2022-10-07T10:05:41.538Z,2.10
2022-10-07T10:08:22.060Z,2.50
2022-10-07T10:10:53.707Z,2.45
2022-10-07T10:13:26.725Z,2.20
2022-10-07T10:15:54.062Z,1.88
2022-10-07T10:18:26.648Z,2.85
2022-10-07T10:20:54.126Z,2.63
2022-10-07T10:23:30.437Z,2.30
2022-10-07T10:26:16.260Z,2.15
2022-10-07T10:28:47.816Z,2.40
2022-10-07T10:31:21.630Z,2.53
2022-10-07T10:34:10.054Z,2.13
2022-10-07T10:36:40.038Z,1.88
2022-10-07T10:39:14.688Z,1.92
2022-10-07T10:41:52.867Z,2.10
2022-10-07T10:44:32.813Z,1.85
2022-10-07T10:47:18.902Z,2.40
2022-10-07T10:49:48.996Z,2.03
2022-10-07T10:52:26.043Z,2.17
2022-10-07T10:55:01.645Z,2.47
2022-10-07T10:57:37.795Z,1.80
2022-10-07T11:00:13.443Z,1.95
2022-10-07T11:02:40.902Z,2.08
2022-10-07T11:05:20.905Z,1.90
2022-10-07T11:08:01.971Z,1.98
2022-10-07T11:13:16.118Z,2.33
2022-10-07T11:15:47.433Z,1.92
2022-10-07T11:18:45.810Z,2.40
2022-10-07T11:21:18.305Z,2.08
2022-10-07T11:23:50.420Z,1.92
2022-10-07T11:26:17.958Z,2.08
2022-10-07T11:28:45.639Z,2.08
2022-10-07T11:31:17.614Z,2.10
2022-10-07T11:33:47.574Z,1.85
2022-10-07T11:36:16.788Z,1.63
2022-10-07T11:38:44.760Z,2.03
2022-10-07T11:41:15.037Z,1.90
2022-10-07T11:43:46.879Z,1.90
2022-10-07T11:46:32.247Z,1.38
2022-10-07T11:49:05.606Z,1.77
2022-10-07T11:51:41.122Z,1.92
2022-10-07T11:54:09.781Z,1.98
2022-10-07T11:56:45.378Z,2.45
2022-10-07T11:59:27.705Z,1.73
2022-10-07T12:01:55.348Z,1.63
2022-10-07T12:04:25.421Z,1.65
2022-10-07T12:07:11.698Z,1.95
2022-10-07T12:09:57.197Z,1.88
2022-10-07T12:12:24.800Z,2.17
2022-10-07T12:15:03.437Z,1.70
2022-10-07T12:17:31.611Z,1.65
2022-10-07T12:20:17.314Z,2.20
2022-10-07T12:22:44.811Z,1.67
2022-10-07T12:25:29.339Z,1.50
2022-10-07T12:27:56.794Z,1.67
2022-10-07T12:30:50.761Z,1.77
2022-10-07T12:33:29.988Z,1.67
2022-10-07T12:35:57.297Z,1.23
2022-10-07T12:38:26.547Z,1.50
2022-10-07T12:41:12.641Z,1.63
2022-10-07T12:43:43.303Z,1.50
2022-10-07T12:46:12.465Z,1.38
2022-10-07T12:48:48.881Z,1.80
2022-10-07T12:51:23.309Z,1.88
2022-10-07T12:53:52.495Z,1.88
2022-10-07T12:56:22.885Z,1.73
2022-10-07T12:59:15.493Z,1.60
2022-10-07T13:01:55.936Z,1.83
2022-10-07T13:04:26.341Z,1.45
2022-10-07T13:07:12.415Z,1.63
2022-10-07T13:09:57.844Z,1.73
2022-10-07T13:12:38.486Z,1.40
2022-10-07T13:15:16.679Z,1.50
2022-10-07T13:17:44.747Z,1.52
2022-10-07T13:20:18.177Z,1.90
2022-10-07T13:22:49.195Z,1.58
2022-10-07T13:25:19.542Z,2.08
2022-10-07T13:28:07.295Z,1.90
2022-10-07T13:30:36.388Z,1.77
2022-10-07T13:33:14.305Z,1.73
2022-10-07T13:35:41.898Z,1.58
2022-10-07T13:38:25.632Z,2.00
2022-10-07T13:41:14.638Z,1.63
2022-10-07T13:43:44.503Z,1.90
2022-10-07T13:46:13.194Z,1.50
2022-10-07T13:48:45.545Z,2.28
2022-10-07T13:51:20.551Z,1.88
2022-10-07T13:53:55.431Z,1.77
2022-10-07T13:56:28.317Z,1.50
2022-10-07T13:58:56.875Z,1.90
2022-10-07T14:01:27.274Z,2.05
2022-10-07T14:04:01.139Z,1.73
2022-10-07T14:06:59.698Z,1.70
2022-10-07T14:09:33.509Z,1.60
2022-10-07T14:12:12.600Z,1.63
2022-10-07T14:14:41.541Z,1.48
2022-10-07T14:17:28.191Z,1.50
2022-10-07T14:19:59.088Z,1.88
2022-10-07T14:22:32.201Z,1.63
2022-10-07T14:25:01.870Z,2.35
2022-10-07T14:27:50.194Z,2.05
2022-10-07T14:30:55.853Z,1.88
2022-10-07T14:33:44.738Z,1.30
2022-10-07T14:36:13.588Z,1.40
2022-10-07T14:38:41.540Z,1.48
2022-10-07T14:41:10.383Z,1.33
2022-10-07T14:43:40.583Z,1.58
2022-10-07T14:46:17.771Z,1.30
2022-10-07T14:48:49.798Z,1.48
2022-10-07T14:51:19.356Z,1.35
2022-10-07T14:53:49.373Z,1.60
2022-10-07T14:56:21.150Z,1.50
2022-10-07T14:58:48.636Z,1.60
2022-10-07T15:01:16.545Z,1.25
2022-10-07T15:03:44.571Z,1.90
2022-10-07T15:06:12.071Z,1.50
2022-10-07T15:08:39.635Z,1.30
2022-10-07T15:11:07.238Z,1.67
2022-10-07T15:13:34.760Z,1.23
2022-10-07T15:16:03.674Z,1.50
2022-10-07T15:18:31.166Z,1.42
2022-10-07T15:20:58.576Z,1.48
2022-10-07T15:23:26.831Z,1.60
2022-10-07T15:25:54.227Z,1.90
2022-10-07T15:28:21.657Z,2.20
2022-10-07T15:30:49.195Z,2.45
2022-10-07T15:33:16.748Z,2.30
2022-10-07T15:35:44.884Z,2.47
2022-10-07T15:38:12.331Z,1.92
2022-10-07T15:40:51.887Z,1.90
2022-10-07T15:43:19.341Z,1.80
2022-10-07T15:45:46.657Z,2.13
2022-10-07T15:48:15.286Z,2.10
2022-10-07T15:50:48.122Z,2.00
2022-10-07T15:53:38.378Z,2.00
2022-10-07T15:56:07.379Z,2.00
2022-10-07T15:58:34.987Z,2.50
2022-10-07T16:01:03.776Z,1.80
2022-10-07T16:03:50.224Z,2.25
2022-10-07T16:06:21.655Z,2.03
2022-10-07T16:08:52.218Z,1.98
2022-10-07T16:11:20.013Z,1.98
2022-10-07T16:13:50.609Z,2.03
2022-10-07T16:16:19.279Z,2.45
2022-10-07T16:18:47.933Z,2.42
2022-10-07T16:21:19.410Z,2.60
2022-10-07T16:23:47.383Z,3.30
2022-10-07T16:26:16.565Z,3.33
2022-10-07T16:29:04.583Z,4.00
2022-10-07T16:31:33.442Z,3.28
2022-10-07T16:34:01.094Z,2.80
2022-10-07T16:36:28.656Z,3.22
2022-10-07T16:38:57.884Z,2.97
2022-10-07T16:41:27.099Z,3.63
2022-10-07T16:43:57.323Z,3.10
2022-10-07T16:46:24.785Z,3.30
2022-10-07T16:48:52.643Z,3.45
2022-10-07T16:51:28.112Z,3.42
2022-10-07T16:53:56.613Z,4.05
2022-10-07T16:56:24.213Z,4.03
2022-10-07T16:58:58.539Z,3.70
2022-10-07T17:01:27.615Z,3.47
2022-10-07T17:03:55.602Z,3.58
2022-10-07T17:06:23.712Z,3.83
2022-10-07T17:08:51.446Z,4.03
2022-10-07T17:11:29.569Z,3.42
2022-10-07T17:13:57.947Z,3.92
2022-10-07T17:16:26.309Z,3.90
2022-10-07T17:18:53.837Z,4.05
2022-10-07T17:21:21.601Z,3.03
2022-10-07T17:23:49.464Z,3.50
2022-10-07T17:26:17.730Z,3.20
2022-10-07T17:28:49.747Z,3.33
2022-10-07T17:31:18.391Z,2.78
2022-10-07T17:33:45.832Z,2.95
2022-10-07T17:36:14.340Z,3.50
2022-10-07T17:38:42.428Z,3.28
2022-10-07T17:41:12.786Z,3.40
2022-10-07T17:43:41.523Z,2.97
2022-10-07T17:46:12.765Z,3.30
2022-10-07T17:48:44.100Z,3.00
2022-10-07T17:51:11.612Z,3.00
2022-10-07T17:53:42.146Z,3.00
2022-10-07T17:56:11.117Z,2.70
2022-10-07T17:58:39.468Z,3.00
2022-10-07T18:01:08.075Z,2.88
2022-10-07T18:03:38.268Z,2.97
2022-10-07T18:06:07.163Z,2.88
2022-10-07T18:08:40.601Z,3.38
2022-10-07T18:11:08.111Z,3.25
2022-10-07T18:13:54.253Z,3.03
2022-10-07T18:16:22.446Z,2.60
2022-10-07T18:18:54.302Z,2.67
2022-10-07T18:21:22.679Z,2.40
2022-10-07T18:23:50.660Z,2.80
2022-10-07T18:26:21.413Z,2.65
2022-10-07T18:28:49.045Z,2.80
2022-10-07T18:31:17.307Z,2.70
2022-10-07T18:33:46.416Z,2.95
2022-10-07T18:36:18.424Z,2.40
2022-10-07T18:38:46.407Z,2.58
2022-10-07T18:41:15.357Z,2.40
2022-10-07T18:43:43.768Z,2.22
2022-10-07T18:46:12.981Z,2.15
2022-10-07T18:48:41.962Z,2.75
2022-10-07T18:51:10.612Z,2.25
2022-10-07T18:53:39.268Z,2.38
2022-10-07T18:56:07.865Z,2.58
2022-10-07T18:58:36.980Z,2.80
2022-10-07T19:01:11.637Z,2.90
2022-10-07T19:03:40.217Z,2.55
2022-10-07T19:06:08.611Z,2.55
2022-10-07T19:08:35.977Z,2.60
2022-10-07T19:11:04.538Z,2.38
2022-10-07T19:13:50.895Z,2.47
2022-10-07T19:16:21.161Z,2.60
2022-10-07T19:18:49.813Z,2.58
2022-10-07T19:21:20.109Z,2.28
2022-10-07T19:23:48.990Z,2.50
2022-10-07T19:26:21.696Z,2.70
2022-10-07T19:28:50.359Z,2.20
2022-10-07T19:31:19.266Z,2.25
2022-10-07T19:33:50.513Z,2.40
2022-10-07T19:38:46.175Z,1.90
2022-10-07T19:41:17.162Z,2.22
2022-10-07T19:43:46.673Z,2.33
2022-10-07T19:46:14.486Z,2.70
2022-10-07T19:48:42.480Z,3.13
2022-10-07T19:51:13.419Z,2.65
2022-10-07T19:53:46.604Z,2.45
2022-10-07T19:56:20.405Z,2.22
2022-10-07T19:58:57.952Z,2.60
2022-10-07T20:01:28.139Z,2.13
2022-10-07T20:04:08.819Z,2.30
2022-10-07T20:06:36.985Z,2.72
2022-10-07T20:09:05.183Z,2.35
2022-10-07T20:11:32.836Z,2.38
2022-10-07T20:14:01.499Z,3.38
2022-10-07T20:16:29.518Z,2.70
2022-10-07T20:19:08.200Z,2.75
2022-10-07T20:21:37.300Z,2.92
2022-10-07T20:24:05.457Z,2.72
2022-10-07T20:26:34.313Z,2.90
2022-10-07T20:29:02.309Z,3.47
2022-10-07T20:31:31.098Z,3.03
2022-10-07T20:33:59.226Z,2.63
2022-10-07T20:36:30.960Z,2.90
2022-10-07T20:39:17.901Z,3.05
2022-10-07T20:42:03.850Z,3.20
2022-10-07T20:44:31.286Z,3.28
2022-10-07T20:46:58.808Z,2.90
2022-10-07T20:49:28.769Z,2.92
2022-10-07T20:51:57.540Z,2.80
2022-10-07T20:54:25.698Z,3.42
2022-10-07T20:56:53.873Z,2.85
2022-10-07T20:59:21.852Z,2.80
2022-10-07T21:01:49.158Z,2.30
2022-10-07T21:04:16.750Z,2.42
2022-10-07T21:06:44.306Z,2.55
2022-10-07T21:09:11.923Z,2.90
2022-10-07T21:11:39.336Z,2.85
2022-10-07T21:14:06.595Z,2.60
2022-10-07T21:16:35.368Z,2.42
2022-10-07T21:19:02.676Z,2.42
2022-10-07T21:21:29.920Z,2.75
2022-10-07T21:23:57.212Z,3.40
2022-10-07T21:26:26.112Z,2.92
2022-10-07T21:28:53.483Z,2.63
2022-10-07T21:31:22.383Z,2.65
2022-10-07T21:33:50.881Z,2.63
2022-10-07T21:36:19.635Z,2.85
2022-10-07T21:38:47.878Z,2.58
2022-10-07T21:41:19.668Z,3.05
2022-10-07T21:43:54.318Z,3.00
2022-10-07T21:46:22.273Z,2.38
2022-10-07T21:48:49.644Z,3.10
2022-10-07T21:51:17.002Z,3.00
2022-10-07T21:53:45.818Z,2.83
2022-10-07T21:56:13.651Z,3.08
2022-10-07T21:58:41.213Z,2.85
2022-10-07T22:01:12.309Z,3.08
2022-10-07T22:06:08.090Z,2.80
2022-10-07T22:08:35.949Z,2.80
2022-10-07T22:11:05.927Z,2.92
2022-10-07T22:13:34.311Z,2.80
2022-10-07T22:16:02.570Z,2.60
2022-10-07T22:18:33.639Z,2.50
2022-10-07T22:21:12.921Z,2.85
2022-10-07T22:23:41.118Z,2.97
2022-10-07T22:26:10.057Z,2.38
2022-10-07T22:28:38.127Z,2.53
2022-10-07T22:31:07.097Z,2.95
2022-10-07T22:33:34.911Z,3.13
2022-10-07T22:36:06.079Z,2.75
2022-10-07T22:41:04.159Z,2.88
2022-10-07T22:43:31.509Z,2.95
2022-10-07T22:45:59.562Z,3.35
2022-10-07T22:48:27.424Z,2.85
2022-10-07T22:50:54.786Z,2.60
2022-10-07T22:53:26.416Z,3.13
2022-10-07T22:55:53.671Z,3.05
2022-10-07T22:58:20.951Z,2.70
2022-10-07T23:00:50.769Z,5.07
2022-10-07T23:03:18.473Z,2.90
2022-10-07T23:05:49.421Z,2.72
2022-10-07T23:08:16.877Z,2.75
2022-10-07T23:10:44.198Z,3.03
2022-10-07T23:13:11.569Z,3.25
2022-10-07T23:15:38.865Z,2.88
2022-10-07T23:18:08.682Z,3.05
2022-10-07T23:20:36.755Z,3.40
2022-10-07T23:23:04.302Z,3.25
2022-10-07T23:25:31.609Z,3.20
2022-10-07T23:27:59.683Z,3.10
2022-10-07T23:30:27.101Z,3.03
2022-10-07T23:32:55.069Z,3.38
2022-10-07T23:35:22.329Z,3.30
2022-10-07T23:37:51.134Z,3.15
2022-10-07T23:40:18.391Z,3.28
2022-10-07T23:42:46.335Z,3.15
2022-10-07T23:45:14.608Z,3.58
2022-10-07T23:47:43.376Z,3.17
2022-10-07T23:50:13.120Z,3.72
2022-10-07T23:52:40.385Z,3.65
2022-10-07T23:55:07.985Z,3.60
2022-10-07T23:57:35.247Z,4.50
